sensor_id;sensor_type;location;lat;lon;timestamp;pressure;altitude;pressure_sealevel;temperature;humidity
56671;BME280;42545;50.054;8.306;2023-02-15T00:01:43;101529.94;;;-0.22;100.00
56671;BME280;42545;50.054;8.306;2023-02-15T00:04:12;101519.97;;;-0.28;100.00
56671;BME280;42545;50.054;8.306;2023-02-15T00:06:40;101529.44;;;-0.18;100.00
56671;BME280;42545;50.054;8.306;2023-02-15T00:09:08;101523.31;;;-0.18;100.00
56671;BME280;42545;50.054;8.306;2023-02-15T00:11:37;101523.22;;;-0.20;100.00
56671;BME280;42545;50.054;8.306;2023-02-15T00:14:10;101510.25;;;-0.20;100.00
56671;BME280;42545;50.054;8.306;2023-02-15T00:16:38;101515.44;;;-0.20;100.00
56671;BME280;42545;50.054;8.306;2023-02-15T00:19:05;101511.91;;;-0.21;100.00
56671;BME280;42545;50.054;8.306;2023-02-15T00:21:33;101509.19;;;-0.22;100.00
56671;BME280;42545;50.054;8.306;2023-02-15T00:24:01;101505.81;;;-0.21;100.00
56671;BME280;42545;50.054;8.306;2023-02-15T00:26:29;101505.69;;;-0.23;100.00
56671;BME280;42545;50.054;8.306;2023-02-15T00:28:56;101502.84;;;-0.26;100.00
56671;BME280;42545;50.054;8.306;2023-02-15T00:31:25;101501.31;;;-0.24;100.00
56671;BME280;42545;50.054;8.306;2023-02-15T00:33:52;101490.94;;;-0.24;100.00
56671;BME280;42545;50.054;8.306;2023-02-15T00:36:19;101477.28;;;-0.31;100.00
56671;BME280;42545;50.054;8.306;2023-02-15T00:38:45;101490.13;;;-0.23;100.00
56671;BME280;42545;50.054;8.306;2023-02-15T00:41:13;101490.38;;;-0.20;100.00
56671;BME280;42545;50.054;8.306;2023-02-15T00:43:41;101494.91;;;-0.17;100.00
56671;BME280;42545;50.054;8.306;2023-02-15T00:46:09;101485.47;;;-0.16;100.00
56671;BME280;42545;50.054;8.306;2023-02-15T00:48:36;101492.44;;;-0.15;100.00
56671;BME280;42545;50.054;8.306;2023-02-15T00:51:02;101484.66;;;-0.15;100.00
56671;BME280;42545;50.054;8.306;2023-02-15T00:53:30;101482.75;;;-0.18;100.00
56671;BME280;42545;50.054;8.306;2023-02-15T00:55:57;101488.16;;;-0.15;100.00
56671;BME280;42545;50.054;8.306;2023-02-15T00:58:24;101494.38;;;-0.13;100.00
56671;BME280;42545;50.054;8.306;2023-02-15T01:00:52;101492.72;;;-0.12;100.00
56671;BME280;42545;50.054;8.306;2023-02-15T01:03:20;101492.72;;;-0.12;100.00
56671;BME280;42545;50.054;8.306;2023-02-15T01:05:48;101492.84;;;-0.11;100.00
56671;BME280;42545;50.054;8.306;2023-02-15T01:08:16;101487.75;;;-0.09;100.00
56671;BME280;42545;50.054;8.306;2023-02-15T01:10:42;101488.56;;;-0.10;100.00
56671;BME280;42545;50.054;8.306;2023-02-15T01:13:13;101485.28;;;-0.08;100.00
56671;BME280;42545;50.054;8.306;2023-02-15T01:15:39;101486.22;;;-0.07;100.00
56671;BME280;42545;50.054;8.306;2023-02-15T01:18:08;101481.94;;;-0.07;100.00
56671;BME280;42545;50.054;8.306;2023-02-15T01:20:36;101483.63;;;-0.07;100.00
56671;BME280;42545;50.054;8.306;2023-02-15T01:23:04;101474.00;;;-0.08;100.00
56671;BME280;42545;50.054;8.306;2023-02-15T01:25:33;101471.41;;;-0.08;100.00
56671;BME280;42545;50.054;8.306;2023-02-15T01:28:01;101468.81;;;-0.08;100.00
56671;BME280;42545;50.054;8.306;2023-02-15T01:30:30;101471.41;;;-0.08;100.00
56671;BME280;42545;50.054;8.306;2023-02-15T01:32:57;101470.66;;;-0.07;100.00
56671;BME280;42545;50.054;8.306;2023-02-15T01:35:25;101470.66;;;-0.07;100.00
56671;BME280;42545;50.054;8.306;2023-02-15T01:37:51;101468.16;;;-0.06;100.00
56671;BME280;42545;50.054;8.306;2023-02-15T01:40:19;101469.09;;;-0.05;100.00
56671;BME280;42545;50.054;8.306;2023-02-15T01:42:45;101463.88;;;-0.05;100.00
56671;BME280;42545;50.054;8.306;2023-02-15T01:45:19;101460.28;;;-0.07;100.00
56671;BME280;42545;50.054;8.306;2023-02-15T01:47:51;101462.97;;;-0.06;100.00
56671;BME280;42545;50.054;8.306;2023-02-15T01:50:22;101450.78;;;-0.07;100.00
56671;BME280;42545;50.054;8.306;2023-02-15T01:52:57;101455.31;;;-0.04;100.00
56671;BME280;42545;50.054;8.306;2023-02-15T01:55:27;101461.44;;;-0.04;100.00
56671;BME280;42545;50.054;8.306;2023-02-15T01:57:55;101455.72;;;-0.10;100.00
56671;BME280;42545;50.054;8.306;2023-02-15T02:00:22;101450.66;;;-0.08;100.00
56671;BME280;42545;50.054;8.306;2023-02-15T02:03:11;101456.75;;;-0.08;100.00
56671;BME280;42545;50.054;8.306;2023-02-15T02:05:39;101449.75;;;-0.09;100.00
56671;BME280;42545;50.054;8.306;2023-02-15T02:08:08;101448.84;;;-0.09;100.00
56671;BME280;42545;50.054;8.306;2023-02-15T02:10:36;101448.84;;;-0.09;100.00
56671;BME280;42545;50.054;8.306;2023-02-15T02:13:04;101452.59;;;-0.06;100.00
56671;BME280;42545;50.054;8.306;2023-02-15T02:15:38;101454.41;;;-0.05;100.00
56671;BME280;42545;50.054;8.306;2023-02-15T02:18:15;101445.72;;;-0.05;100.00
56671;BME280;42545;50.054;8.306;2023-02-15T02:20:59;101442.19;;;-0.06;100.00
56671;BME280;42545;50.054;8.306;2023-02-15T02:23:39;101440.41;;;-0.07;100.00
56671;BME280;42545;50.054;8.306;2023-02-15T02:26:51;101434.31;;;-0.07;100.00
56671;BME280;42545;50.054;8.306;2023-02-15T02:29:57;101424.31;;;-0.13;100.00
56671;BME280;42545;50.054;8.306;2023-02-15T02:32:56;101425.47;;;-0.09;100.00
56671;BME280;42545;50.054;8.306;2023-02-15T02:35:33;101427.03;;;-0.11;100.00
56671;BME280;42545;50.054;8.306;2023-02-15T02:38:08;101427.19;;;-0.10;100.00
56671;BME280;42545;50.054;8.306;2023-02-15T02:40:51;101428.88;;;-0.10;100.00
56671;BME280;42545;50.054;8.306;2023-02-15T02:43:22;101427.84;;;-0.12;100.00
56671;BME280;42545;50.054;8.306;2023-02-15T02:45:57;101430.19;;;-0.15;100.00
56671;BME280;42545;50.054;8.306;2023-02-15T02:48:30;101430.06;;;-0.17;100.00
56671;BME280;42545;50.054;8.306;2023-02-15T02:50:58;101428.38;;;-0.16;100.00
56671;BME280;42545;50.054;8.306;2023-02-15T02:53:25;101429.28;;;-0.16;100.00
56671;BME280;42545;50.054;8.306;2023-02-15T02:55:56;101429.28;;;-0.16;100.00
56671;BME280;42545;50.054;8.306;2023-02-15T02:58:29;101424.88;;;-0.17;100.00
56671;BME280;42545;50.054;8.306;2023-02-15T03:01:02;101424.88;;;-0.17;100.00
56671;BME280;42545;50.054;8.306;2023-02-15T03:03:36;101423.97;;;-0.17;100.00
56671;BME280;42545;50.054;8.306;2023-02-15T03:06:06;101418.91;;;-0.16;100.00
56671;BME280;42545;50.054;8.306;2023-02-15T03:08:39;101412.91;;;-0.15;100.00
56671;BME280;42545;50.054;8.306;2023-02-15T03:11:08;101409.44;;;-0.15;100.00
56671;BME280;42545;50.054;8.306;2023-02-15T03:13:35;101406.84;;;-0.15;100.00
56671;BME280;42545;50.054;8.306;2023-02-15T03:16:05;101405.13;;;-0.15;100.00
56671;BME280;42545;50.054;8.306;2023-02-15T03:18:55;101403.34;;;-0.16;100.00
56671;BME280;42545;50.054;8.306;2023-02-15T03:21:28;101406.16;;;-0.13;100.00
56671;BME280;42545;50.054;8.306;2023-02-15T03:24:00;101411.34;;;-0.13;100.00
56671;BME280;42545;50.054;8.306;2023-02-15T03:26:32;101402.53;;;-0.15;100.00
56671;BME280;42545;50.054;8.306;2023-02-15T03:29:02;101402.53;;;-0.15;100.00
56671;BME280;42545;50.054;8.306;2023-02-15T03:31:32;101386.97;;;-0.15;100.00
56671;BME280;42545;50.054;8.306;2023-02-15T03:34:06;101387.91;;;-0.14;100.00
56671;BME280;42545;50.054;8.306;2023-02-15T03:36:39;101386.09;;;-0.15;100.00
56671;BME280;42545;50.054;8.306;2023-02-15T03:39:17;101393.09;;;-0.14;100.00
56671;BME280;42545;50.054;8.306;2023-02-15T03:41:50;101388.69;;;-0.15;100.00
56671;BME280;42545;50.054;8.306;2023-02-15T03:44:25;101397.34;;;-0.15;100.00
56671;BME280;42545;50.054;8.306;2023-02-15T03:46:58;101392.97;;;-0.16;100.00
56671;BME280;42545;50.054;8.306;2023-02-15T03:49:36;101387.66;;;-0.17;100.00
56671;BME280;42545;50.054;8.306;2023-02-15T03:52:07;101392.06;;;-0.16;100.00
56671;BME280;42545;50.054;8.306;2023-02-15T03:54:36;101388.41;;;-0.18;100.00
56671;BME280;42545;50.054;8.306;2023-02-15T03:57:14;101385.72;;;-0.20;100.00
56671;BME280;42545;50.054;8.306;2023-02-15T04:00:00;101386.63;;;-0.20;100.00
56671;BME280;42545;50.054;8.306;2023-02-15T04:02:52;101380.75;;;-0.17;100.00
56671;BME280;42545;50.054;8.306;2023-02-15T04:05:25;101382.47;;;-0.17;100.00
56671;BME280;42545;50.054;8.306;2023-02-15T04:07:52;101384.03;;;-0.20;100.00
56671;BME280;42545;50.054;8.306;2023-02-15T04:10:18;101376.88;;;-0.22;100.00
56671;BME280;42545;50.054;8.306;2023-02-15T04:13:03;101388.97;;;-0.23;100.00
56671;BME280;42545;50.054;8.306;2023-02-15T04:15:29;101382.63;;;-0.26;100.00
56671;BME280;42545;50.054;8.306;2023-02-15T04:18:13;101392.59;;;-0.21;100.00
56671;BME280;42545;50.054;8.306;2023-02-15T04:20:44;101393.38;;;-0.22;100.00
56671;BME280;42545;50.054;8.306;2023-02-15T04:23:31;101393.38;;;-0.22;100.00
56671;BME280;42545;50.054;8.306;2023-02-15T04:26:16;101391.56;;;-0.23;100.00
56671;BME280;42545;50.054;8.306;2023-02-15T04:28:43;101384.19;;;-0.28;100.00
56671;BME280;42545;50.054;8.306;2023-02-15T04:31:09;101388.97;;;-0.23;100.00
56671;BME280;42545;50.054;8.306;2023-02-15T04:33:36;101388.06;;;-0.23;100.00
56671;BME280;42545;50.054;8.306;2023-02-15T04:36:05;101399.47;;;-0.21;100.00
56671;BME280;42545;50.054;8.306;2023-02-15T04:38:31;101396.09;;;-0.20;100.00
56671;BME280;42545;50.054;8.306;2023-02-15T04:40:58;101388.41;;;-0.18;100.00
56671;BME280;42545;50.054;8.306;2023-02-15T04:43:24;101382.34;;;-0.19;100.00
56671;BME280;42545;50.054;8.306;2023-02-15T04:45:51;101384.16;;;-0.18;100.00
56671;BME280;42545;50.054;8.306;2023-02-15T04:48:18;101378.16;;;-0.17;100.00
56671;BME280;42545;50.054;8.306;2023-02-15T04:50:44;101379.19;;;-0.15;100.00
56671;BME280;42545;50.054;8.306;2023-02-15T04:53:13;101380.91;;;-0.15;100.00
56671;BME280;42545;50.054;8.306;2023-02-15T04:55:41;101380.13;;;-0.14;100.00
56671;BME280;42545;50.054;8.306;2023-02-15T04:58:08;101378.16;;;-0.17;100.00
56671;BME280;42545;50.054;8.306;2023-02-15T05:00:35;101369.50;;;-0.17;100.00
56671;BME280;42545;50.054;8.306;2023-02-15T05:03:01;101351.78;;;-0.33;100.00
56671;BME280;42545;50.054;8.306;2023-02-15T05:05:28;101373.66;;;-0.20;100.00
56671;BME280;42545;50.054;8.306;2023-02-15T05:07:55;101371.06;;;-0.20;100.00
56671;BME280;42545;50.054;8.306;2023-02-15T05:10:23;101371.97;;;-0.19;100.00
56671;BME280;42545;50.054;8.306;2023-02-15T05:12:49;101362.59;;;-0.17;100.00
56671;BME280;42545;50.054;8.306;2023-02-15T05:15:16;101366.13;;;-0.16;100.00
56671;BME280;42545;50.054;8.306;2023-02-15T05:17:43;101368.72;;;-0.16;100.00
56671;BME280;42545;50.054;8.306;2023-02-15T05:20:10;101373.13;;;-0.15;100.00
56671;BME280;42545;50.054;8.306;2023-02-15T05:22:36;101360.13;;;-0.15;100.00
56671;BME280;42545;50.054;8.306;2023-02-15T05:25:06;101363.41;;;-0.18;100.00
56671;BME280;42545;50.054;8.306;2023-02-15T05:27:52;101373.13;;;-0.15;100.00
56671;BME280;42545;50.054;8.306;2023-02-15T05:30:36;101363.41;;;-0.18;100.00
56671;BME280;42545;50.054;8.306;2023-02-15T05:33:04;101366.78;;;-0.19;100.00
56671;BME280;42545;50.054;8.306;2023-02-15T05:35:31;101371.81;;;-0.21;100.00
56671;BME280;42545;50.054;8.306;2023-02-15T05:37:58;101369.09;;;-0.22;100.00
56671;BME280;42545;50.054;8.306;2023-02-15T05:40:24;101367.31;;;-0.23;100.00
56671;BME280;42545;50.054;8.306;2023-02-15T05:42:52;101367.31;;;-0.23;100.00
56671;BME280;42545;50.054;8.306;2023-02-15T05:45:20;101367.44;;;-0.22;100.00
56671;BME280;42545;50.054;8.306;2023-02-15T05:47:48;101360.44;;;-0.23;100.00
56671;BME280;42545;50.054;8.306;2023-02-15T05:50:15;101366.50;;;-0.22;100.00
56671;BME280;42545;50.054;8.306;2023-02-15T05:52:41;101370.81;;;-0.23;100.00
56671;BME280;42545;50.054;8.306;2023-02-15T05:55:08;101374.19;;;-0.24;100.00
56671;BME280;42545;50.054;8.306;2023-02-15T05:57:35;101373.94;;;-0.27;100.00
56671;BME280;42545;50.054;8.306;2023-02-15T06:00:04;101371.97;;;-0.29;100.00
56671;BME280;42545;50.054;8.306;2023-02-15T06:02:33;101370.97;;;-0.31;100.00
56671;BME280;42545;50.054;8.306;2023-02-15T06:05:00;101374.34;;;-0.32;100.00
56671;BME280;42545;50.054;8.306;2023-02-15T06:07:27;101378.66;;;-0.33;100.00
56671;BME280;42545;50.054;8.306;2023-02-15T06:09:54;101378.66;;;-0.33;100.00
56671;BME280;42545;50.054;8.306;2023-02-15T06:12:22;101379.75;;;-0.29;100.00
56671;BME280;42545;50.054;8.306;2023-02-15T06:14:49;101373.81;;;-0.28;100.00
56671;BME280;42545;50.054;8.306;2023-02-15T06:17:17;101379.75;;;-0.29;100.00
56671;BME280;42545;50.054;8.306;2023-02-15T06:19:43;101380.56;;;-0.30;100.00
56671;BME280;42545;50.054;8.306;2023-02-15T06:22:10;101381.47;;;-0.30;100.00
56671;BME280;42545;50.054;8.306;2023-02-15T06:24:39;101395.31;;;-0.29;100.00
56671;BME280;42545;50.054;8.306;2023-02-15T06:27:07;101393.53;;;-0.30;100.00
56671;BME280;42545;50.054;8.306;2023-02-15T06:29:34;101390.56;;;-0.35;100.00
56671;BME280;42545;50.054;8.306;2023-02-15T06:32:00;101397.44;;;-0.35;100.00
56671;BME280;42545;50.054;8.306;2023-02-15T06:34:31;101395.50;;;-0.38;100.00
56671;BME280;42545;50.054;8.306;2023-02-15T06:37:00;101396.81;;;-0.43;100.00
56671;BME280;42545;50.054;8.306;2023-02-15T06:39:27;101388.91;;;-0.45;100.00
56671;BME280;42545;50.054;8.306;2023-02-15T06:41:57;101401.88;;;-0.45;100.00
56671;BME280;42545;50.054;8.306;2023-02-15T06:44:25;101401.09;;;-0.44;100.00
56671;BME280;42545;50.054;8.306;2023-02-15T06:46:51;101402.53;;;-0.47;100.00
56671;BME280;42545;50.054;8.306;2023-02-15T06:49:18;101408.50;;;-0.48;100.00
56671;BME280;42545;50.054;8.306;2023-02-15T06:51:46;101414.34;;;-0.51;100.00
56671;BME280;42545;50.054;8.306;2023-02-15T06:54:13;101416.13;;;-0.50;100.00
56671;BME280;42545;50.054;8.306;2023-02-15T06:56:39;101416.13;;;-0.50;100.00
56671;BME280;42545;50.054;8.306;2023-02-15T06:59:07;101407.34;;;-0.52;100.00
56671;BME280;42545;50.054;8.306;2023-02-15T07:01:33;101412.53;;;-0.52;100.00
56671;BME280;42545;50.054;8.306;2023-02-15T07:04:03;101424.06;;;-0.48;100.00
56671;BME280;42545;50.054;8.306;2023-02-15T07:06:31;101421.47;;;-0.48;100.00
56671;BME280;42545;50.054;8.306;2023-02-15T07:08:59;101419.66;;;-0.49;100.00
56671;BME280;42545;50.054;8.306;2023-02-15T07:11:27;101416.81;;;-0.52;100.00
56671;BME280;42545;50.054;8.306;2023-02-15T07:14:11;101410.47;;;-0.56;100.00
56671;BME280;42545;50.054;8.306;2023-02-15T07:16:38;101410.47;;;-0.56;100.00
56671;BME280;42545;50.054;8.306;2023-02-15T07:19:04;101422.00;;;-0.52;100.00
56671;BME280;42545;50.054;8.306;2023-02-15T07:21:32;101407.88;;;-0.56;100.00
56671;BME280;42545;50.054;8.306;2023-02-15T07:24:00;101421.31;;;-0.50;100.00
56671;BME280;42545;50.054;8.306;2023-02-15T07:26:27;101423.16;;;-0.49;100.00
56671;BME280;42545;50.054;8.306;2023-02-15T07:28:54;101418.50;;;-0.53;100.00
56671;BME280;42545;50.054;8.306;2023-02-15T07:31:20;101422.63;;;-0.55;100.00
56671;BME280;42545;50.054;8.306;2023-02-15T07:33:47;101414.75;;;-0.56;100.00
56671;BME280;42545;50.054;8.306;2023-02-15T07:36:13;101413.94;;;-0.55;100.00
56671;BME280;42545;50.054;8.306;2023-02-15T07:38:41;101417.44;;;-0.55;100.00
56671;BME280;42545;50.054;8.306;2023-02-15T07:41:12;101414.09;;;-0.54;100.00
56671;BME280;42545;50.054;8.306;2023-02-15T07:43:40;101414.09;;;-0.54;100.00
56671;BME280;42545;50.054;8.306;2023-02-15T07:46:08;101407.34;;;-0.52;100.00
56671;BME280;42545;50.054;8.306;2023-02-15T07:48:37;101405.78;;;-0.50;100.00
56671;BME280;42545;50.054;8.306;2023-02-15T07:51:05;101407.59;;;-0.49;100.00
56671;BME280;42545;50.054;8.306;2023-02-15T07:53:32;101408.50;;;-0.48;100.00
56671;BME280;42545;50.054;8.306;2023-02-15T07:55:59;101401.63;;;-0.48;100.00
56671;BME280;42545;50.054;8.306;2023-02-15T07:58:28;101400.84;;;-0.47;100.00
56671;BME280;42545;50.054;8.306;2023-02-15T08:01:14;101398.13;;;-0.48;100.00
56671;BME280;42545;50.054;8.306;2023-02-15T08:03:41;101399.94;;;-0.47;100.00
56671;BME280;42545;50.054;8.306;2023-02-15T08:06:08;101402.41;;;-0.49;100.00
56671;BME280;42545;50.054;8.306;2023-02-15T08:08:36;101404.75;;;-0.52;100.00
56671;BME280;42545;50.054;8.306;2023-02-15T08:11:05;101398.13;;;-0.48;100.00
56671;BME280;42545;50.054;8.306;2023-02-15T08:13:52;101396.69;;;-0.45;100.00
56671;BME280;42545;50.054;8.306;2023-02-15T08:16:27;101395.66;;;-0.47;100.00
56671;BME280;42545;50.054;8.306;2023-02-15T08:18:54;101396.56;;;-0.46;100.00
56671;BME280;42545;50.054;8.306;2023-02-15T08:21:21;101391.38;;;-0.46;100.00
56671;BME280;42545;50.054;8.306;2023-02-15T08:23:48;101393.19;;;-0.45;100.00
56671;BME280;42545;50.054;8.306;2023-02-15T08:26:15;101388.16;;;-0.44;100.00
56671;BME280;42545;50.054;8.306;2023-02-15T08:28:42;101388.38;;;-0.41;100.00
56671;BME280;42545;50.054;8.306;2023-02-15T08:31:12;101389.53;;;-0.37;100.00
56671;BME280;42545;50.054;8.306;2023-02-15T08:33:41;101386.03;;;-0.37;100.00
56671;BME280;42545;50.054;8.306;2023-02-15T08:36:09;101383.97;;;-0.42;100.00
56671;BME280;42545;50.054;8.306;2023-02-15T08:38:39;101375.41;;;-0.41;100.00
56671;BME280;42545;50.054;8.306;2023-02-15T08:41:10;101369.31;;;-0.41;100.00
56671;BME280;42545;50.054;8.306;2023-02-15T08:43:37;101380.09;;;-0.36;100.00
56671;BME280;42545;50.054;8.306;2023-02-15T08:46:05;101375.78;;;-0.36;100.00
56671;BME280;42545;50.054;8.306;2023-02-15T08:48:33;101376.06;;;-0.33;100.00
56671;BME280;42545;50.054;8.306;2023-02-15T08:51:04;101377.84;;;-0.32;100.00
56671;BME280;42545;50.054;8.306;2023-02-15T08:53:31;101380.09;;;-0.36;100.00
56671;BME280;42545;50.054;8.306;2023-02-15T08:55:58;101371.38;;;-0.37;100.00
56671;BME280;42545;50.054;8.306;2023-02-15T08:58:25;101374.63;;;-0.40;100.00
56671;BME280;42545;50.054;8.306;2023-02-15T09:00:52;101352.06;;;-0.41;100.00
56671;BME280;42545;50.054;8.306;2023-02-15T09:03:18;101354.03;;;-0.38;100.00
56671;BME280;42545;50.054;8.306;2023-02-15T09:05:46;101356.75;;;-0.36;100.00
56671;BME280;42545;50.054;8.306;2023-02-15T09:08:12;101354.16;;;-0.36;100.00
56671;BME280;42545;50.054;8.306;2023-02-15T09:10:39;101358.66;;;-0.34;100.00
56671;BME280;42545;50.054;8.306;2023-02-15T09:13:05;101354.50;;;-0.32;100.00
56671;BME280;42545;50.054;8.306;2023-02-15T09:15:32;101358.94;;;-0.31;100.00
56671;BME280;42545;50.054;8.306;2023-02-15T09:17:59;101359.03;;;-0.29;100.00
56671;BME280;42545;50.054;8.306;2023-02-15T09:20:31;101355.53;;;-0.30;100.00
56671;BME280;42545;50.054;8.306;2023-02-15T09:22:59;101350.22;;;-0.31;100.00
56671;BME280;42545;50.054;8.306;2023-02-15T09:25:26;101344.50;;;-0.27;100.00
56671;BME280;42545;50.054;8.306;2023-02-15T09:27:52;101353.44;;;-0.24;100.00
56671;BME280;42545;50.054;8.306;2023-02-15T09:30:19;101341.63;;;-0.20;100.00
56671;BME280;42545;50.054;8.306;2023-02-15T09:32:46;101348.88;;;-0.16;100.00
56671;BME280;42545;50.054;8.306;2023-02-15T09:35:13;101344.56;;;-0.15;100.00
56671;BME280;42545;50.054;8.306;2023-02-15T09:37:40;101337.69;;;-0.15;100.00
56671;BME280;42545;50.054;8.306;2023-02-15T09:40:08;101341.84;;;-0.17;100.00
56671;BME280;42545;50.054;8.306;2023-02-15T09:42:56;101354.06;;;-0.16;100.00
56671;BME280;42545;50.054;8.306;2023-02-15T09:45:58;101349.34;;;-0.10;100.00
56671;BME280;42545;50.054;8.306;2023-02-15T09:48:38;101353.75;;;-0.09;100.00
56671;BME280;42545;50.054;8.306;2023-02-15T09:51:28;101346.50;;;-0.13;100.00
56671;BME280;42545;50.054;8.306;2023-02-15T09:54:20;101352.97;;;-0.08;100.00
56671;BME280;42545;50.054;8.306;2023-02-15T09:56:58;101357.72;;;-0.02;100.00
56671;BME280;42545;50.054;8.306;2023-02-15T09:59:34;101356.72;;;-0.04;100.00
56671;BME280;42545;50.054;8.306;2023-02-15T10:02:14;101361.38;;;0.00;100.00
56671;BME280;42545;50.054;8.306;2023-02-15T10:04:57;101358.88;;;0.02;100.00
56671;BME280;42545;50.054;8.306;2023-02-15T10:07:40;101357.84;;;-0.01;100.00
56671;BME280;42545;50.054;8.306;2023-02-15T10:10:19;101365.91;;;0.03;100.00
56671;BME280;42545;50.054;8.306;2023-02-15T10:13:15;101352.53;;;-0.02;100.00
56671;BME280;42545;50.054;8.306;2023-02-15T10:15:53;101360.28;;;0.08;100.00
56671;BME280;42545;50.054;8.306;2023-02-15T10:18:39;101363.13;;;0.11;100.00
56671;BME280;42545;50.054;8.306;2023-02-15T10:21:19;101357.00;;;0.11;100.00
56671;BME280;42545;50.054;8.306;2023-02-15T10:24:01;101366.88;;;0.15;100.00
56671;BME280;42545;50.054;8.306;2023-02-15T10:26:37;101367.22;;;0.19;100.00
56671;BME280;42545;50.054;8.306;2023-02-15T10:29:19;101372.53;;;0.21;100.00
56671;BME280;42545;50.054;8.306;2023-02-15T10:31:57;101373.44;;;0.22;100.00
56671;BME280;42545;50.054;8.306;2023-02-15T10:34:34;101375.81;;;0.18;100.00
56671;BME280;42545;50.054;8.306;2023-02-15T10:37:16;101367.09;;;0.18;100.00
56671;BME280;42545;50.054;8.306;2023-02-15T10:39:59;101373.31;;;0.20;100.00
56671;BME280;42545;50.054;8.306;2023-02-15T10:42:36;101364.06;;;0.24;100.00
56671;BME280;42545;50.054;8.306;2023-02-15T10:45:18;101340.53;;;0.10;100.00
56671;BME280;42545;50.054;8.306;2023-02-15T10:47:58;101355.78;;;0.28;100.00
56671;BME280;42545;50.054;8.306;2023-02-15T10:50:39;101341.34;;;0.31;100.00
56671;BME280;42545;50.054;8.306;2023-02-15T10:53:34;101355.47;;;0.35;100.00
56671;BME280;42545;50.054;8.306;2023-02-15T10:56:12;101318.94;;;0.22;100.00
56671;BME280;42545;50.054;8.306;2023-02-15T10:58:54;101326.97;;;0.25;100.00
56671;BME280;42545;50.054;8.306;2023-02-15T11:01:28;101342.56;;;0.36;100.00
56671;BME280;42545;50.054;8.306;2023-02-15T11:07:04;101353.59;;;0.44;100.00
56671;BME280;42545;50.054;8.306;2023-02-15T11:09:37;101338.53;;;0.40;100.00
56671;BME280;42545;50.054;8.306;2023-02-15T11:12:10;101337.31;;;0.47;100.00
56671;BME280;42545;50.054;8.306;2023-02-15T11:14:44;101340.94;;;0.49;100.00
56671;BME280;42545;50.054;8.306;2023-02-15T11:17:17;101334.41;;;0.54;100.00
56671;BME280;42545;50.054;8.306;2023-02-15T11:19:53;101332.72;;;0.54;100.00
56671;BME280;42545;50.054;8.306;2023-02-15T11:22:20;101318.84;;;0.54;100.00
56671;BME280;42545;50.054;8.306;2023-02-15T11:24:47;101330.47;;;0.59;100.00
56671;BME280;42545;50.054;8.306;2023-02-15T11:27:19;101319.28;;;0.60;100.00
56671;BME280;42545;50.054;8.306;2023-02-15T11:29:55;101318.50;;;0.61;100.00
56671;BME280;42545;50.054;8.306;2023-02-15T11:32:26;101315.34;;;0.65;100.00
56671;BME280;42545;50.054;8.306;2023-02-15T11:34:57;101320.78;;;0.68;100.00
56671;BME280;42545;50.054;8.306;2023-02-15T11:37:29;101314.91;;;0.71;100.00
56671;BME280;42545;50.054;8.306;2023-02-15T11:39:59;101311.41;;;0.70;100.00
56671;BME280;42545;50.054;8.306;2023-02-15T11:42:29;101311.31;;;0.69;100.00
56671;BME280;42545;50.054;8.306;2023-02-15T11:45:01;101305.53;;;0.73;100.00
56671;BME280;42545;50.054;8.306;2023-02-15T11:47:32;101300.59;;;0.76;100.00
56671;BME280;42545;50.054;8.306;2023-02-15T11:49:59;101302.63;;;0.80;100.00
56671;BME280;42545;50.054;8.306;2023-02-15T11:52:26;101291.56;;;0.83;100.00
56671;BME280;42545;50.054;8.306;2023-02-15T11:54:53;101291.78;;;0.86;100.00
56671;BME280;42545;50.054;8.306;2023-02-15T11:57:23;101290.22;;;0.88;100.00
56671;BME280;42545;50.054;8.306;2023-02-15T11:59:57;101280.59;;;0.87;100.00
56671;BME280;42545;50.054;8.306;2023-02-15T12:02:26;101278.13;;;0.88;100.00
56671;BME280;42545;50.054;8.306;2023-02-15T12:05:00;101275.78;;;0.91;100.00
56671;BME280;42545;50.054;8.306;2023-02-15T12:07:34;101260.41;;;0.83;100.00
56671;BME280;42545;50.054;8.306;2023-02-15T12:10:05;101265.38;;;0.91;100.00
56671;BME280;42545;50.054;8.306;2023-02-15T12:12:41;101271.78;;;0.96;100.00
56671;BME280;42545;50.054;8.306;2023-02-15T12:15:10;101268.75;;;1.02;100.00
56671;BME280;42545;50.054;8.306;2023-02-15T12:17:39;101250.09;;;0.96;100.00
56671;BME280;42545;50.054;8.306;2023-02-15T12:20:24;101268.41;;;1.09;100.00
56671;BME280;42545;50.054;8.306;2023-02-15T12:22:53;101272.94;;;1.12;100.00
56671;BME280;42545;50.054;8.306;2023-02-15T12:25:22;101261.06;;;1.04;100.00
56671;BME280;42545;50.054;8.306;2023-02-15T12:27:52;101267.75;;;1.12;100.00
56671;BME280;42545;50.054;8.306;2023-02-15T12:30:22;101267.19;;;1.16;100.00
56671;BME280;42545;50.054;8.306;2023-02-15T12:32:53;101270.78;;;1.18;100.00
56671;BME280;42545;50.054;8.306;2023-02-15T12:35:27;101257.91;;;1.20;100.00
56671;BME280;42545;50.054;8.306;2023-02-15T12:37:55;101246.84;;;1.10;100.00
56671;BME280;42545;50.054;8.306;2023-02-15T12:40:24;101264.00;;;1.20;100.00
56671;BME280;42545;50.054;8.306;2023-02-15T12:42:52;101255.53;;;1.23;100.00
56671;BME280;42545;50.054;8.306;2023-02-15T12:45:22;101246.94;;;1.24;100.00
56671;BME280;42545;50.054;8.306;2023-02-15T12:47:53;101249.19;;;1.31;100.00
56671;BME280;42545;50.054;8.306;2023-02-15T12:50:35;101248.53;;;1.33;100.00
56671;BME280;42545;50.054;8.306;2023-02-15T12:53:07;101241.63;;;1.34;100.00
56671;BME280;42545;50.054;8.306;2023-02-15T12:55:34;101239.13;;;1.36;100.00
56671;BME280;42545;50.054;8.306;2023-02-15T12:58:08;101237.19;;;1.33;100.00
56671;BME280;42545;50.054;8.306;2023-02-15T13:00:35;101235.41;;;1.32;100.00
56671;BME280;42545;50.054;8.306;2023-02-15T13:03:02;101220.81;;;1.34;100.00
56671;BME280;42545;50.054;8.306;2023-02-15T13:05:32;101223.63;;;1.37;100.00
56671;BME280;42545;50.054;8.306;2023-02-15T13:08:10;101221.13;;;1.39;100.00